createdAt,value
2022-09-27T00:02:26.323Z,99874.19
2022-09-27T00:04:52.996Z,99878.66
2022-09-27T00:07:19.642Z,99872.50
2022-09-27T00:09:46.243Z,99873.28
2022-09-27T00:12:12.897Z,99868.03
2022-09-27T00:14:39.553Z,99858.28
2022-09-27T00:17:06.143Z,99866.22
2022-09-27T00:19:32.772Z,99872.22
2022-09-27T00:22:01.495Z,99867.72
2022-09-27T00:24:28.192Z,99862.25
2022-09-27T00:26:55.059Z,99874.41
2022-09-27T00:29:21.734Z,99873.41
2022-09-27T00:31:48.865Z,99869.78
2022-09-27T00:34:21.765Z,99874.09
2022-09-27T00:36:49.410Z,99874.78
2022-09-27T00:39:16.886Z,99866.72
2022-09-27T00:41:44.237Z,99881.66
2022-09-27T00:44:29.011Z,99877.13
2022-09-27T00:47:02.752Z,99880.47
2022-09-27T00:49:51.264Z,99879.53
2022-09-27T00:52:24.151Z,99883.81
2022-09-27T00:54:55.588Z,99885.63
2022-09-27T00:57:23.467Z,99887.50
2022-09-27T00:59:54.793Z,99891.84
2022-09-27T01:02:21.571Z,99895.44
2022-09-27T01:04:49.819Z,99895.44
2022-09-27T01:07:16.727Z,99893.75
2022-09-27T01:09:43.502Z,99901.72
2022-09-27T01:12:23.061Z,99909.69
2022-09-27T01:14:55.837Z,99898.25
2022-09-27T01:18:03.678Z,99907.25
2022-09-27T01:21:05.445Z,99898.59
2022-09-27T01:24:07.172Z,99895.22
2022-09-27T01:26:49.877Z,99897.03
2022-09-27T01:29:44.390Z,99897.03
2022-09-27T01:32:47.374Z,99899.69
2022-09-27T01:35:39.878Z,99898.91
2022-09-27T01:38:22.176Z,99889.31
2022-09-27T01:41:08.279Z,99890.34
2022-09-27T01:43:50.069Z,99892.19
2022-09-27T01:46:35.312Z,99892.28
2022-09-27T01:49:10.978Z,99894.09
2022-09-27T01:51:47.399Z,99896.81
2022-09-27T01:54:22.071Z,99897.66
2022-09-27T01:56:54.111Z,99898.56
2022-09-27T01:59:32.918Z,99906.50
2022-09-27T02:02:04.961Z,99911.72
2022-09-27T02:04:34.358Z,99910.88
2022-09-27T02:07:11.735Z,99901.22
2022-09-27T02:09:53.075Z,99912.69
2022-09-27T02:12:28.046Z,99912.69
2022-09-27T02:15:07.135Z,99913.59
2022-09-27T02:17:57.146Z,99916.44
2022-09-27T02:20:39.195Z,99908.47
2022-09-27T02:23:27.355Z,99913.78
2022-09-27T02:25:57.931Z,99919.09
2022-09-27T02:28:34.077Z,99913.94
2022-09-27T02:31:00.852Z,99918.38
2022-09-27T02:33:37.643Z,99918.44
2022-09-27T02:36:05.206Z,99928.28
2022-09-27T02:38:32.402Z,99915.25
2022-09-27T02:40:59.055Z,99924.22
2022-09-27T02:43:29.342Z,99924.31
2022-09-27T02:46:20.867Z,99923.50
2022-09-27T02:48:57.147Z,99922.75
2022-09-27T02:51:57.100Z,99920.16
2022-09-27T02:54:46.711Z,99922.06
2022-09-27T02:57:31.802Z,99922.97
2022-09-27T03:00:07.636Z,99923.84
2022-09-27T03:02:40.227Z,99920.31
2022-09-27T03:05:16.135Z,99923.91
2022-09-27T03:07:43.029Z,99920.56
2022-09-27T03:10:18.255Z,99922.34
2022-09-27T03:12:44.897Z,99923.31
2022-09-27T03:15:11.681Z,99922.50
2022-09-27T03:17:38.311Z,99928.66
2022-09-27T03:20:05.411Z,99922.50
2022-09-27T03:22:32.471Z,99928.66
2022-09-27T03:24:59.098Z,99924.31
2022-09-27T03:27:25.743Z,99918.06
2022-09-27T03:29:52.427Z,99923.16
2022-09-27T03:32:19.166Z,99919.47
2022-09-27T03:34:45.853Z,99919.41
2022-09-27T03:37:12.490Z,99927.22
2022-09-27T03:39:39.837Z,99927.06
2022-09-27T03:42:06.698Z,99923.38
2022-09-27T03:44:33.278Z,99927.75
2022-09-27T03:47:00.185Z,99928.63
2022-09-27T03:49:26.797Z,99923.16
2022-09-27T03:51:53.604Z,99934.53
2022-09-27T03:54:20.276Z,99919.41
2022-09-27T03:56:46.913Z,99931.72
2022-09-27T03:59:14.223Z,99936.88
2022-09-27T04:01:41.258Z,99932.34
2022-09-27T04:04:11.213Z,99933.13
2022-09-27T04:06:38.047Z,99937.31
2022-09-27T04:09:04.762Z,99932.72
2022-09-27T04:11:31.413Z,99938.72
2022-09-27T04:13:58.875Z,99932.34
2022-09-27T04:16:25.698Z,99932.25
2022-09-27T04:18:52.526Z,99925.91
2022-09-27T04:21:20.442Z,99926.78
2022-09-27T04:23:47.207Z,99934.66
2022-09-27T04:26:13.892Z,99934.66
2022-09-27T04:28:40.838Z,99939.09
2022-09-27T04:31:07.747Z,99931.94
2022-09-27T04:33:34.439Z,99931.94
2022-09-27T04:36:19.627Z,99935.44
2022-09-27T04:38:46.245Z,99938.94
2022-09-27T04:41:13.782Z,99943.50
2022-09-27T04:43:40.412Z,99943.56
2022-09-27T04:46:07.166Z,99940.16
2022-09-27T04:48:33.976Z,99942.94
2022-09-27T04:51:02.511Z,99941.22
2022-09-27T04:53:29.967Z,99942.16
2022-09-27T04:55:56.826Z,99946.69
2022-09-27T04:58:24.370Z,99954.75
2022-09-27T05:00:52.422Z,99955.75
2022-09-27T05:03:19.572Z,99951.38
2022-09-27T05:05:46.223Z,99960.34
2022-09-27T05:08:12.975Z,99961.34
2022-09-27T05:10:40.087Z,99958.72
2022-09-27T05:13:09.962Z,99963.25
2022-09-27T05:15:36.549Z,99972.06
2022-09-27T05:18:03.193Z,99970.38
2022-09-27T05:20:29.782Z,99976.59
2022-09-27T05:22:56.970Z,99964.34
2022-09-27T05:25:23.574Z,99974.03
2022-09-27T05:27:51.007Z,99964.41
2022-09-27T05:30:17.887Z,99965.34
2022-09-27T05:32:46.705Z,99965.41
2022-09-27T05:35:13.418Z,99961.06
2022-09-27T05:37:40.702Z,99966.38
2022-09-27T05:40:17.232Z,99959.25
2022-09-27T05:42:50.497Z,99967.16
2022-09-27T05:45:19.497Z,99963.50
2022-09-27T05:47:56.687Z,99972.31
2022-09-27T05:50:24.602Z,99969.56
2022-09-27T05:52:51.801Z,99965.97
2022-09-27T05:55:18.652Z,99967.72
2022-09-27T05:57:59.434Z,99965.81
2022-09-27T06:00:33.652Z,99959.50
2022-09-27T06:03:06.341Z,99969.09
2022-09-27T06:05:51.493Z,99970.81
2022-09-27T06:08:20.557Z,99976.81
2022-09-27T06:10:47.591Z,99970.50
2022-09-27T06:13:15.801Z,99978.31
2022-09-27T06:15:44.890Z,99969.50
2022-09-27T06:18:14.336Z,99979.00
2022-09-27T06:20:42.993Z,99984.06
2022-09-27T06:23:11.954Z,99975.94
2022-09-27T06:25:42.270Z,99988.22
2022-09-27T06:28:11.603Z,99985.41
2022-09-27T06:30:41.862Z,99989.63
2022-09-27T06:33:12.474Z,99988.59
2022-09-27T06:35:50.253Z,99994.63
2022-09-27T06:38:18.327Z,99996.06
2022-09-27T06:40:47.368Z,99992.41
2022-09-27T06:43:16.337Z,99997.47
2022-09-27T06:45:44.813Z,99996.44
2022-09-27T06:48:13.695Z,100002.38
2022-09-27T06:50:44.207Z,100005.56
2022-09-27T06:53:13.014Z,100002.75
2022-09-27T06:55:40.278Z,100005.00
2022-09-27T06:58:26.835Z,100011.88
2022-09-27T07:00:54.127Z,100013.28
2022-09-27T07:03:44.928Z,100021.88
2022-09-27T07:06:20.405Z,100014.50
2022-09-27T07:08:53.814Z,100015.13
2022-09-27T07:11:22.077Z,100008.69
2022-09-27T07:13:48.774Z,100019.06
2022-09-27T07:16:15.767Z,100021.44
2022-09-27T07:18:48.473Z,100016.91
2022-09-27T07:21:16.407Z,100024.63
2022-09-27T07:23:46.569Z,100014.59
2022-09-27T07:26:16.381Z,100018.91
2022-09-27T07:28:43.372Z,100024.81
2022-09-27T07:31:11.463Z,100019.41
2022-09-27T07:33:43.329Z,100021.81
2022-09-27T07:36:11.999Z,100028.66
2022-09-27T07:38:38.762Z,100039.91
2022-09-27T07:41:07.105Z,100032.53
2022-09-27T07:43:33.734Z,100039.31
2022-09-27T07:46:00.483Z,100042.66
2022-09-27T07:48:28.353Z,100041.53
2022-09-27T07:51:00.326Z,100034.22
2022-09-27T07:53:26.934Z,100038.53
2022-09-27T07:55:54.127Z,100031.22
2022-09-27T07:58:21.852Z,100043.50
2022-09-27T08:00:48.584Z,100033.59
2022-09-27T08:03:16.467Z,100035.25
2022-09-27T08:05:45.572Z,100044.69
2022-09-27T08:08:12.415Z,100052.38
2022-09-27T08:10:44.225Z,100052.22
2022-09-27T08:13:11.794Z,100050.13
2022-09-27T08:15:39.192Z,100060.53
2022-09-27T08:18:07.475Z,100060.25
2022-09-27T08:20:36.397Z,100058.16
2022-09-27T08:23:04.368Z,100061.34
2022-09-27T08:25:31.697Z,100055.78
2022-09-27T08:28:01.889Z,100056.44
2022-09-27T08:30:32.650Z,100047.31
2022-09-27T08:33:02.481Z,100050.75
2022-09-27T08:35:31.210Z,100055.91
2022-09-27T08:38:05.091Z,100046.97
2022-09-27T08:40:37.864Z,100044.09
2022-09-27T08:43:16.718Z,100052.84
2022-09-27T08:45:59.538Z,100050.00
2022-09-27T08:48:30.653Z,100049.63
2022-09-27T08:50:58.349Z,100046.88
2022-09-27T08:53:49.355Z,100052.88
2022-09-27T08:56:24.019Z,100047.34
2022-09-27T08:58:56.405Z,100054.31
2022-09-27T09:01:28.514Z,100057.66
2022-09-27T09:04:00.421Z,100056.59
2022-09-27T09:06:56.145Z,100055.56
2022-09-27T09:09:44.576Z,100066.06
2022-09-27T09:12:39.911Z,100065.94
2022-09-27T09:15:54.392Z,100063.94
2022-09-27T09:18:40.276Z,100068.25
2022-09-27T09:21:09.679Z,100072.31
2022-09-27T09:23:42.046Z,100065.88
2022-09-27T09:26:36.530Z,100077.28
2022-09-27T09:29:12.149Z,100064.78
2022-09-27T09:31:47.147Z,100063.88
2022-09-27T09:34:40.726Z,100072.41
2022-09-27T09:37:21.367Z,100069.56
2022-09-27T09:40:08.701Z,100064.88
2022-09-27T09:42:40.592Z,100057.75
2022-09-27T09:45:18.532Z,100064.88
2022-09-27T09:48:15.399Z,100054.34
2022-09-27T09:50:47.163Z,100052.41
2022-09-27T09:53:39.458Z,100058.41
2022-09-27T09:56:12.674Z,100060.81
2022-09-27T09:58:51.624Z,100057.16
2022-09-27T10:01:26.585Z,100063.34
2022-09-27T10:03:55.900Z,100067.97
2022-09-27T10:06:24.778Z,100069.06
2022-09-27T10:08:55.865Z,100073.66
2022-09-27T10:11:37.604Z,100071.00
2022-09-27T10:14:11.693Z,100077.19
2022-09-27T10:16:43.730Z,100068.53
2022-09-27T10:19:12.153Z,100073.09
2022-09-27T10:21:43.064Z,100070.59
2022-09-27T10:24:17.633Z,100074.22
2022-09-27T10:26:47.676Z,100071.94
2022-09-27T10:29:37.959Z,100074.06
2022-09-27T10:32:19.125Z,100075.38
2022-09-27T10:34:45.931Z,100074.97
2022-09-27T10:37:12.449Z,100073.44
2022-09-27T10:39:41.526Z,100075.34
2022-09-27T10:42:38.054Z,100069.34
2022-09-27T10:45:26.329Z,100064.22
2022-09-27T10:47:53.037Z,100066.97
2022-09-27T10:50:58.933Z,100069.63
2022-09-27T10:53:27.737Z,100066.91
2022-09-27T10:55:54.854Z,100068.50
2022-09-27T10:58:47.603Z,100063.81
2022-09-27T11:01:14.373Z,100063.66
2022-09-27T11:03:55.148Z,100062.78
2022-09-27T11:06:24.740Z,100072.41
2022-09-27T11:08:56.149Z,100066.22
2022-09-27T11:11:27.293Z,100056.44
2022-09-27T11:13:57.183Z,100060.91
2022-09-27T11:16:51.970Z,100064.50
2022-09-27T11:19:33.713Z,100068.97
2022-09-27T11:22:08.582Z,100061.75
2022-09-27T11:24:49.268Z,100061.56
2022-09-27T11:27:44.401Z,100059.66
2022-09-27T11:30:21.382Z,100061.28
2022-09-27T11:33:04.755Z,100060.13
2022-09-27T11:35:47.534Z,100066.97
2022-09-27T11:38:24.837Z,100069.38
2022-09-27T11:41:03.523Z,100063.69
2022-09-27T11:44:02.721Z,100056.16
2022-09-27T11:46:41.112Z,100052.22
2022-09-27T11:49:11.143Z,100051.94
2022-09-27T11:51:46.545Z,100054.19
2022-09-27T11:54:20.483Z,100066.31
2022-09-27T11:56:51.804Z,100054.47
2022-09-27T11:59:25.137Z,100060.47
2022-09-27T12:02:13.495Z,100059.31
2022-09-27T12:05:01.875Z,100052.97
2022-09-27T12:07:54.650Z,100050.75
2022-09-27T12:10:21.798Z,100058.38
2022-09-27T12:12:54.770Z,100054.47
2022-09-27T12:15:30.316Z,100055.97
2022-09-27T12:18:12.277Z,100054.69
2022-09-27T12:20:42.277Z,100054.50
2022-09-27T12:23:43.033Z,100055.25
2022-09-27T12:26:18.086Z,100062.88
2022-09-27T12:28:55.462Z,100056.38
2022-09-27T12:31:30.434Z,100056.25
2022-09-27T12:34:22.536Z,100052.41
2022-09-27T12:36:59.530Z,100059.38
2022-09-27T12:39:34.969Z,100058.44
2022-09-27T12:42:07.929Z,100065.50
2022-09-27T12:44:47.483Z,100062.03
2022-09-27T12:47:40.316Z,100066.53
2022-09-27T12:50:24.064Z,100065.03
2022-09-27T12:52:57.231Z,100064.19
2022-09-27T12:56:05.889Z,100064.19
2022-09-27T12:58:51.448Z,100066.09
2022-09-27T13:01:42.753Z,100074.09
2022-09-27T13:04:43.498Z,100074.09
2022-09-27T13:07:12.732Z,100071.44
2022-09-27T13:10:26.339Z,100075.91
2022-09-27T13:12:55.206Z,100078.59
2022-09-27T13:15:32.030Z,100073.38
2022-09-27T13:18:05.483Z,100069.72
2022-09-27T13:20:34.802Z,100080.22
2022-09-27T13:23:25.508Z,100074.66
2022-09-27T13:26:00.961Z,100074.25
2022-09-27T13:28:33.203Z,100080.16
2022-09-27T13:31:04.472Z,100072.66
2022-09-27T13:33:42.131Z,100074.06
2022-09-27T13:36:21.518Z,100069.50
2022-09-27T13:39:11.952Z,100075.50
2022-09-27T13:41:51.626Z,100075.38
2022-09-27T13:44:49.090Z,100074.41
2022-09-27T13:47:38.302Z,100070.88
2022-09-27T13:50:25.121Z,100069.19
2022-09-27T13:53:03.363Z,100075.19
2022-09-27T13:55:42.665Z,100072.19
2022-09-27T13:58:43.391Z,100076.91
2022-09-27T14:01:24.180Z,100079.91
2022-09-27T14:03:52.483Z,100082.28
2022-09-27T14:06:24.169Z,100069.66
2022-09-27T14:09:02.128Z,100067.09
2022-09-27T14:11:33.819Z,100084.84
2022-09-27T14:14:02.266Z,100086.56
2022-09-27T14:16:34.166Z,100079.50
2022-09-27T14:19:02.667Z,100089.25
2022-09-27T14:21:33.465Z,100091.91
2022-09-27T14:24:22.123Z,100088.28
2022-09-27T14:26:50.729Z,100092.78
2022-09-27T14:29:22.501Z,100095.53
2022-09-27T14:32:11.999Z,100088.28
2022-09-27T14:34:39.525Z,100098.97
2022-09-27T14:37:24.207Z,100096.31
2022-09-27T14:39:56.525Z,100086.66
2022-09-27T14:42:26.469Z,100094.03
2022-09-27T14:44:55.831Z,100092.63
2022-09-27T14:47:24.912Z,100094.66
2022-09-27T14:50:13.055Z,100105.78
2022-09-27T14:52:40.477Z,100096.34
2022-09-27T14:55:13.855Z,100097.59
2022-09-27T14:57:47.973Z,100093.56
2022-09-27T15:00:21.365Z,100101.78
2022-09-27T15:02:50.859Z,100103.78
2022-09-27T15:05:20.648Z,100112.97
2022-09-27T15:07:48.308Z,100111.34
2022-09-27T15:10:20.489Z,100108.03
2022-09-27T15:12:50.388Z,100114.41
2022-09-27T15:15:21.920Z,100118.13
2022-09-27T15:17:48.867Z,100122.75
2022-09-27T15:20:35.255Z,100114.94
2022-09-27T15:23:04.305Z,100116.09
2022-09-27T15:25:42.451Z,100123.34
2022-09-27T15:28:11.740Z,100129.84
2022-09-27T15:30:40.851Z,100126.50
2022-09-27T15:33:22.363Z,100134.59
2022-09-27T15:35:52.031Z,100123.25
2022-09-27T15:38:33.682Z,100124.31
2022-09-27T15:41:02.118Z,100129.75
2022-09-27T15:43:30.963Z,100138.81
2022-09-27T15:46:22.892Z,100131.00
2022-09-27T15:49:17.297Z,100126.81
2022-09-27T15:51:48.564Z,100128.75
2022-09-27T15:54:19.405Z,100136.84
2022-09-27T15:56:46.835Z,100132.47
2022-09-27T15:59:19.578Z,100129.13
2022-09-27T16:01:46.247Z,100137.22
2022-09-27T16:04:12.949Z,100136.72
2022-09-27T16:06:43.020Z,100131.56
2022-09-27T16:09:18.795Z,100139.00
2022-09-27T16:11:49.779Z,100141.13
2022-09-27T16:14:19.158Z,100139.56
2022-09-27T16:16:48.356Z,100143.38
2022-09-27T16:19:15.253Z,100149.94
2022-09-27T16:21:43.000Z,100147.59
2022-09-27T16:24:10.779Z,100138.13
2022-09-27T16:26:39.087Z,100139.19
2022-09-27T16:29:13.295Z,100150.06
2022-09-27T16:31:41.056Z,100147.56
2022-09-27T16:34:09.852Z,100143.38
2022-09-27T16:36:37.507Z,100151.63
2022-09-27T16:39:06.040Z,100148.31
2022-09-27T16:41:33.677Z,100153.91
2022-09-27T16:44:06.645Z,100152.41
2022-09-27T16:46:36.776Z,100167.72
2022-09-27T16:49:09.572Z,100157.22
2022-09-27T16:51:56.082Z,100163.69
2022-09-27T16:54:25.851Z,100170.13
2022-09-27T16:57:00.003Z,100164.13
2022-09-27T16:59:27.639Z,100164.34
2022-09-27T17:01:58.428Z,100176.97
2022-09-27T17:04:28.846Z,100181.72
2022-09-27T17:07:00.584Z,100184.47
2022-09-27T17:09:29.839Z,100185.50
2022-09-27T17:11:59.205Z,100181.22
2022-09-27T17:14:37.206Z,100184.16
2022-09-27T17:17:09.099Z,100179.00
2022-09-27T17:19:50.171Z,100190.69
2022-09-27T17:22:19.849Z,100188.28
2022-09-27T17:24:49.041Z,100188.47
2022-09-27T17:27:15.647Z,100189.47
2022-09-27T17:29:44.569Z,100187.91
2022-09-27T17:32:13.735Z,100187.97
2022-09-27T17:34:52.712Z,100193.50
2022-09-27T17:37:19.396Z,100192.91
2022-09-27T17:39:49.187Z,100180.72
2022-09-27T17:42:15.935Z,100182.59
2022-09-27T17:44:46.861Z,100186.38
2022-09-27T17:47:35.126Z,100187.38
2022-09-27T17:50:20.141Z,100184.03
2022-09-27T17:52:46.891Z,100193.94
2022-09-27T17:55:14.939Z,100189.53
2022-09-27T17:57:41.599Z,100186.19
2022-09-27T18:00:10.186Z,100192.38
2022-09-27T18:02:37.011Z,100193.31
2022-09-27T18:05:03.838Z,100195.97
2022-09-27T18:07:30.849Z,100192.47
2022-09-27T18:09:58.161Z,100195.13
2022-09-27T18:12:31.940Z,100204.91
2022-09-27T18:14:59.224Z,100198.81
2022-09-27T18:17:27.341Z,100205.88
2022-09-27T18:19:57.106Z,100213.91
2022-09-27T18:22:29.418Z,100205.09
2022-09-27T18:24:56.068Z,100221.06
2022-09-27T18:27:22.748Z,100218.41
2022-09-27T18:29:49.486Z,100217.53
2022-09-27T18:32:16.223Z,100222.88
2022-09-27T18:34:42.834Z,100227.16
2022-09-27T18:37:09.436Z,100223.56
2022-09-27T18:39:36.062Z,100226.06
2022-09-27T18:42:02.694Z,100217.03
2022-09-27T18:44:29.297Z,100225.78
2022-09-27T18:46:56.007Z,100218.47
2022-09-27T18:49:26.343Z,100223.75
2022-09-27T18:51:55.218Z,100220.97
2022-09-27T18:54:22.673Z,100219.09
2022-09-27T18:56:50.586Z,100225.19
2022-09-27T18:59:17.627Z,100228.63
2022-09-27T19:01:47.507Z,100225.03
2022-09-27T19:04:21.556Z,100216.06
2022-09-27T19:06:51.465Z,100228.47
2022-09-27T19:09:18.457Z,100232.94
2022-09-27T19:11:45.245Z,100238.94
2022-09-27T19:14:17.627Z,100237.84
2022-09-27T19:16:47.081Z,100230.59
2022-09-27T19:19:17.010Z,100235.75
2022-09-27T19:21:43.972Z,100235.56
2022-09-27T19:24:10.819Z,100237.09
2022-09-27T19:26:37.468Z,100240.50
2022-09-27T19:29:05.143Z,100246.56
2022-09-27T19:31:32.229Z,100245.59
2022-09-27T19:34:00.353Z,100242.84
2022-09-27T19:36:27.965Z,100238.28
2022-09-27T19:38:56.441Z,100251.50
2022-09-27T19:41:23.064Z,100243.44
2022-09-27T19:43:53.789Z,100238.00
2022-09-27T19:46:21.749Z,100242.31
2022-09-27T19:48:50.083Z,100238.63
2022-09-27T19:51:19.441Z,100237.66
2022-09-27T19:53:46.222Z,100248.16
2022-09-27T19:56:13.376Z,100238.34
2022-09-27T19:58:41.525Z,100236.53
2022-09-27T20:01:11.469Z,100239.81
2022-09-27T20:03:40.365Z,100235.25
2022-09-27T20:06:10.253Z,100236.09
2022-09-27T20:08:37.438Z,100240.50
2022-09-27T20:11:07.109Z,100233.34
2022-09-27T20:13:35.057Z,100246.50
2022-09-27T20:16:13.194Z,100241.19
2022-09-27T20:18:42.332Z,100242.88
2022-09-27T20:21:08.967Z,100242.81
2022-09-27T20:23:36.486Z,100248.03
2022-09-27T20:26:08.351Z,100242.72
2022-09-27T20:28:46.740Z,100248.81
2022-09-27T20:31:16.191Z,100245.28
2022-09-27T20:33:55.255Z,100247.09
2022-09-27T20:36:36.793Z,100242.59
2022-09-27T20:39:11.571Z,100249.56
2022-09-27T20:41:46.405Z,100250.44
2022-09-27T20:44:15.538Z,100250.34
2022-09-27T20:46:46.473Z,100248.53
2022-09-27T20:49:16.496Z,100251.09
2022-09-27T20:51:44.907Z,100253.78
2022-09-27T20:54:12.981Z,100253.78
2022-09-27T20:56:42.483Z,100258.19
2022-09-27T20:59:23.085Z,100251.88
2022-09-27T21:01:51.804Z,100251.03
2022-09-27T21:04:19.888Z,100254.56
2022-09-27T21:06:47.046Z,100259.03
2022-09-27T21:09:19.135Z,100253.59
2022-09-27T21:11:51.932Z,100251.88
2022-09-27T21:14:18.878Z,100259.88
2022-09-27T21:16:45.893Z,100258.19
2022-09-27T21:19:13.062Z,100267.88
2022-09-27T21:21:39.720Z,100262.56
2022-09-27T21:24:06.469Z,100270.56
2022-09-27T21:26:33.757Z,100271.41
2022-09-27T21:29:02.531Z,100266.94
2022-09-27T21:31:32.069Z,100257.22
2022-09-27T21:34:01.469Z,100259.88
2022-09-27T21:36:30.247Z,100259.88
2022-09-27T21:38:57.386Z,100267.88
2022-09-27T21:41:25.694Z,100267.88
2022-09-27T21:43:53.032Z,100277.59
2022-09-27T21:46:24.759Z,100272.25
2022-09-27T21:48:57.469Z,100269.59
2022-09-27T21:51:29.739Z,100270.56
2022-09-27T21:53:58.825Z,100270.56
2022-09-27T21:56:27.826Z,100278.56
2022-09-27T21:58:54.509Z,100278.66
2022-09-27T22:01:23.809Z,100274.25
2022-09-27T22:03:52.414Z,100281.41
2022-09-27T22:06:21.269Z,100276.22
2022-09-27T22:08:49.135Z,100274.53
2022-09-27T22:11:18.611Z,100279.84
2022-09-27T22:13:45.343Z,100279.06
2022-09-27T22:16:14.713Z,100276.41
2022-09-27T22:18:46.399Z,100273.00
2022-09-27T22:21:15.838Z,100271.34
2022-09-27T22:23:43.011Z,100267.03
2022-09-27T22:26:15.617Z,100272.47
2022-09-27T22:28:43.630Z,100276.84
2022-09-27T22:31:11.710Z,100270.75
2022-09-27T22:33:38.718Z,100268.97
2022-09-27T22:36:05.601Z,100274.28
2022-09-27T22:38:32.635Z,100268.00
2022-09-27T22:41:01.319Z,100266.19
2022-09-27T22:43:29.372Z,100268.00
2022-09-27T22:45:57.034Z,100261.81
2022-09-27T22:48:23.678Z,100265.41
2022-09-27T22:50:50.331Z,100264.56
2022-09-27T22:53:17.191Z,100267.31
2022-09-27T22:55:43.787Z,100268.19
2022-09-27T22:58:10.394Z,100270.94
2022-09-27T23:00:38.772Z,100262.94
2022-09-27T23:03:05.417Z,100269.19
2022-09-27T23:05:31.987Z,100265.84
2022-09-27T23:07:58.606Z,100266.03
2022-09-27T23:10:25.331Z,100258.88
2022-09-27T23:12:55.012Z,100262.50
2022-09-27T23:15:21.665Z,100271.34
2022-09-27T23:17:51.579Z,100268.88
2022-09-27T23:20:18.945Z,100278.66
2022-09-27T23:22:45.591Z,100273.44
2022-09-27T23:25:12.256Z,100267.50
2022-09-27T23:27:42.055Z,100279.22
2022-09-27T23:30:10.057Z,100275.84
2022-09-27T23:32:37.160Z,100269.91
2022-09-27T23:35:04.038Z,100267.41
2022-09-27T23:37:30.675Z,100274.72
2022-09-27T23:39:57.467Z,100273.88
2022-09-27T23:42:24.134Z,100271.22
2022-09-27T23:44:53.138Z,100261.53
2022-09-27T23:47:19.827Z,100266.00
2022-09-27T23:49:46.427Z,100281.03
2022-09-27T23:52:13.506Z,100265.22
2022-09-27T23:54:40.184Z,100268.09
2022-09-27T23:57:06.906Z,100271.59
2022-09-27T23:59:33.511Z,100263.84
